createdAt,value
2019-02-11T00:01:09.572Z,62.40
2019-02-11T00:03:38.309Z,62.30
2019-02-11T00:06:07.105Z,62.40
2019-02-11T00:08:36.240Z,62.40
2019-02-11T00:11:04.942Z,62.30
2019-02-11T00:13:33.945Z,62.20
2019-02-11T00:16:02.743Z,62.20
2019-02-11T00:18:31.502Z,62.30
2019-02-11T00:21:00.202Z,62.30
2019-02-11T00:23:28.897Z,62.20
2019-02-11T00:25:57.717Z,62.30
2019-02-11T00:28:26.465Z,62.20
2019-02-11T00:30:55.434Z,62.10
2019-02-11T00:33:24.450Z,62.10
2019-02-11T00:35:53.116Z,62.10
2019-02-11T00:38:22.063Z,62.10
2019-02-11T00:40:50.749Z,62.10
2019-02-11T00:43:19.580Z,62.20
2019-02-11T00:45:48.296Z,62.10
2019-02-11T00:48:17.069Z,62.20
2019-02-11T00:50:45.853Z,62.20
2019-02-11T00:53:14.861Z,62.30
2019-02-11T00:55:43.805Z,62.40
2019-02-11T00:58:12.493Z,62.40
2019-02-11T01:00:41.567Z,62.40
2019-02-11T01:03:10.314Z,62.30
2019-02-11T01:05:39.118Z,62.30
2019-02-11T01:08:08.390Z,62.30
2019-02-11T01:10:37.411Z,62.30
2019-02-11T01:13:06.138Z,62.40
2019-02-11T01:15:35.018Z,62.30
2019-02-11T01:18:04.088Z,62.60
2019-02-11T01:20:33.054Z,62.40
2019-02-11T01:23:02.031Z,62.40
2019-02-11T01:25:30.692Z,62.60
2019-02-11T01:27:59.392Z,62.70
2019-02-11T01:30:28.446Z,62.50
2019-02-11T01:32:57.492Z,62.60
2019-02-11T01:35:26.247Z,62.70
2019-02-11T01:37:55.056Z,62.60
2019-02-11T01:40:23.789Z,62.60
2019-02-11T01:42:52.764Z,62.70
2019-02-11T01:45:21.493Z,62.70
2019-02-11T01:47:50.502Z,62.60
2019-02-11T01:50:19.491Z,62.70
2019-02-11T01:52:48.302Z,62.80
2019-02-11T01:55:18.205Z,62.80
2019-02-11T01:57:46.998Z,62.90
2019-02-11T02:00:15.820Z,63.00
2019-02-11T02:02:44.577Z,63.00
2019-02-11T02:05:13.673Z,63.00
2019-02-11T02:07:42.453Z,62.90
2019-02-11T02:10:13.001Z,63.10
2019-02-11T02:12:41.701Z,63.00
2019-02-11T02:15:10.887Z,63.00
2019-02-11T02:17:40.110Z,63.10
2019-02-11T02:20:10.316Z,63.10
2019-02-11T02:22:38.960Z,63.20
2019-02-11T02:25:07.857Z,63.10
2019-02-11T02:27:36.531Z,63.20
2019-02-11T02:30:05.969Z,63.00
2019-02-11T02:32:35.016Z,63.10
2019-02-11T02:35:03.776Z,63.00
2019-02-11T02:37:32.467Z,63.00
2019-02-11T02:40:01.209Z,63.00
2019-02-11T02:42:30.246Z,63.00
2019-02-11T02:44:58.971Z,63.10
2019-02-11T02:47:27.730Z,62.90
2019-02-11T02:49:56.544Z,62.90
2019-02-11T02:52:25.379Z,63.10
2019-02-11T02:54:54.096Z,63.10
2019-02-11T02:57:22.790Z,63.30
2019-02-11T02:59:51.470Z,63.10
2019-02-11T03:02:20.485Z,63.10
2019-02-11T03:04:49.231Z,63.20
2019-02-11T03:07:18.003Z,63.30
2019-02-11T03:09:46.715Z,63.20
2019-02-11T03:12:15.652Z,63.10
2019-02-11T03:14:44.414Z,63.00
2019-02-11T03:17:13.404Z,63.00
2019-02-11T03:19:42.836Z,63.20
2019-02-11T03:22:11.637Z,63.10
2019-02-11T03:24:40.402Z,63.10
2019-02-11T03:27:09.163Z,63.20
2019-02-11T03:29:37.901Z,63.20
2019-02-11T03:32:06.628Z,63.20
2019-02-11T03:34:35.337Z,63.30
2019-02-11T03:37:04.266Z,63.10
2019-02-11T03:39:33.077Z,63.20
2019-02-11T03:42:01.820Z,63.10
2019-02-11T03:44:30.625Z,63.30
2019-02-11T03:46:59.313Z,63.10
2019-02-11T03:49:28.026Z,63.00
2019-02-11T03:51:56.733Z,63.20
2019-02-11T03:54:25.446Z,63.10
2019-02-11T03:56:54.705Z,63.10
2019-02-11T03:59:23.721Z,63.10
2019-02-11T04:01:52.665Z,63.20
2019-02-11T04:04:21.403Z,63.20
2019-02-11T04:06:50.482Z,63.00
2019-02-11T04:09:19.197Z,62.90
2019-02-11T04:11:47.907Z,62.90
2019-02-11T04:14:24.753Z,63.30
2019-02-11T04:16:47.643Z,63.10
2019-02-11T04:19:16.626Z,63.00
2019-02-11T04:21:45.377Z,63.10
2019-02-11T04:24:14.100Z,63.10
2019-02-11T04:26:43.149Z,63.00
2019-02-11T04:29:11.825Z,63.00
2019-02-11T04:31:42.097Z,63.10
2019-02-11T04:34:11.042Z,63.10
2019-02-11T04:36:39.766Z,63.00
2019-02-11T04:39:08.441Z,63.10
2019-02-11T04:41:37.162Z,63.20
2019-02-11T04:44:05.928Z,63.30
2019-02-11T04:46:35.241Z,63.20
2019-02-11T04:49:04.009Z,63.00
2019-02-11T04:51:32.765Z,62.90
2019-02-11T04:54:01.944Z,63.10
2019-02-11T04:56:30.773Z,63.00
2019-02-11T04:59:00.222Z,63.00
2019-02-11T05:01:29.244Z,63.00
2019-02-11T05:03:58.324Z,62.80
2019-02-11T05:06:27.087Z,62.70
2019-02-11T05:08:55.862Z,62.90
2019-02-11T05:11:24.558Z,62.70
2019-02-11T05:13:53.454Z,62.70
2019-02-11T05:16:22.431Z,62.70
2019-02-11T05:18:51.210Z,62.80
2019-02-11T05:21:19.930Z,62.80
2019-02-11T05:23:48.930Z,62.90
2019-02-11T05:26:17.680Z,62.90
2019-02-11T05:28:46.987Z,63.00
2019-02-11T05:31:15.721Z,62.90
2019-02-11T05:33:44.422Z,62.90
2019-02-11T05:36:13.605Z,62.90
2019-02-11T05:38:42.645Z,63.00
2019-02-11T05:41:11.438Z,63.30
2019-02-11T05:43:40.546Z,62.70
2019-02-11T05:46:09.861Z,62.70
2019-02-11T05:48:39.259Z,62.80
2019-02-11T05:51:08.052Z,62.90
2019-02-11T05:53:36.817Z,62.80
2019-02-11T05:56:05.592Z,63.00
2019-02-11T05:58:34.666Z,63.10
2019-02-11T06:01:03.583Z,63.10
2019-02-11T06:03:32.677Z,63.00
2019-02-11T06:06:01.651Z,63.00
2019-02-11T06:08:30.465Z,62.90
2019-02-11T06:10:59.184Z,62.90
2019-02-11T06:13:27.882Z,63.00
2019-02-11T06:15:57.213Z,62.90
2019-02-11T06:18:25.946Z,62.80
2019-02-11T06:20:54.701Z,62.90
2019-02-11T06:23:23.387Z,62.70
2019-02-11T06:25:52.158Z,62.60
2019-02-11T06:28:22.278Z,62.70
2019-02-11T06:30:51.322Z,62.70
2019-02-11T06:33:20.596Z,62.80
2019-02-11T06:35:49.377Z,62.80
2019-02-11T06:38:18.109Z,62.80
2019-02-11T06:40:50.398Z,62.80
2019-02-11T06:43:19.140Z,62.80
2019-02-11T06:45:48.134Z,63.10
2019-02-11T06:48:16.929Z,63.10
2019-02-11T06:50:45.710Z,61.60
2019-02-11T06:53:14.500Z,62.00
2019-02-11T06:55:45.228Z,62.00
2019-02-11T06:58:14.065Z,62.40
2019-02-11T07:00:42.894Z,62.70
2019-02-11T07:03:11.594Z,62.80
2019-02-11T07:05:40.666Z,63.10
2019-02-11T07:08:09.394Z,61.80
2019-02-11T07:10:38.294Z,61.90
2019-02-11T07:13:07.017Z,61.50
2019-02-11T07:15:35.828Z,62.10
2019-02-11T07:18:05.696Z,62.00
2019-02-11T07:20:34.561Z,61.80
2019-02-11T07:23:03.442Z,61.10
2019-02-11T07:25:32.247Z,61.30
2019-02-11T07:28:00.986Z,61.40
2019-02-11T07:30:29.776Z,61.20
2019-02-11T07:32:58.551Z,60.80
2019-02-11T07:35:27.346Z,60.80
2019-02-11T07:37:56.379Z,61.00
2019-02-11T07:40:27.522Z,60.70
2019-02-11T07:43:27.822Z,61.40
2019-02-11T07:45:59.900Z,60.50
2019-02-11T07:48:29.728Z,60.70
2019-02-11T07:50:58.533Z,60.00
2019-02-11T07:53:27.242Z,59.80
2019-02-11T07:55:55.965Z,59.20
2019-02-11T07:58:24.686Z,60.10
2019-02-11T08:00:53.831Z,59.50
2019-02-11T08:03:22.581Z,59.50
2019-02-11T08:05:51.369Z,58.90
2019-02-11T08:08:20.157Z,59.00
2019-02-11T08:10:48.946Z,58.60
2019-02-11T08:13:17.677Z,58.40
2019-02-11T08:15:46.830Z,58.40
2019-02-11T08:18:15.548Z,58.10
2019-02-11T08:20:44.583Z,57.50
2019-02-11T08:23:13.888Z,57.40
2019-02-11T08:25:42.670Z,57.00
2019-02-11T08:28:19.243Z,57.00
2019-02-11T08:30:42.657Z,56.50
2019-02-11T08:33:11.398Z,56.70
2019-02-11T08:35:40.165Z,56.50
2019-02-11T08:38:08.956Z,56.30
2019-02-11T08:40:37.721Z,55.60
2019-02-11T08:43:06.749Z,55.80
2019-02-11T08:45:35.841Z,54.70
2019-02-11T08:48:04.540Z,54.40
2019-02-11T08:50:33.626Z,53.20
2019-02-11T08:53:02.402Z,53.70
2019-02-11T08:55:31.104Z,53.20
2019-02-11T08:57:59.848Z,52.50
2019-02-11T09:00:28.606Z,53.70
2019-02-11T09:02:57.333Z,52.70
2019-02-11T09:05:26.699Z,52.80
2019-02-11T09:07:55.411Z,52.70
2019-02-11T09:10:24.103Z,52.60
2019-02-11T09:12:53.055Z,51.60
2019-02-11T09:15:21.801Z,50.20
2019-02-11T09:17:50.501Z,51.60
2019-02-11T09:20:19.496Z,50.30
2019-02-11T09:22:48.225Z,50.70
2019-02-11T09:25:17.585Z,50.00
2019-02-11T09:27:46.621Z,49.90
2019-02-11T09:30:15.823Z,50.30
2019-02-11T09:32:44.545Z,49.80
2019-02-11T09:35:13.317Z,48.40
2019-02-11T09:37:42.337Z,49.00
2019-02-11T09:40:12.000Z,46.80
2019-02-11T09:42:40.707Z,49.40
2019-02-11T09:45:11.828Z,48.30
2019-02-11T09:47:40.865Z,49.50
2019-02-11T09:50:12.258Z,49.80
2019-02-11T09:52:41.334Z,48.20
2019-02-11T09:55:17.628Z,46.60
2019-02-11T09:57:47.164Z,46.90
2019-02-11T10:00:15.988Z,47.00
2019-02-11T10:02:55.370Z,44.60
2019-02-11T10:05:20.069Z,45.10
2019-02-11T10:07:48.887Z,45.10
2019-02-11T10:10:17.943Z,45.20
2019-02-11T10:12:46.702Z,46.00
2019-02-11T10:15:15.572Z,45.40
2019-02-11T10:17:44.310Z,44.70
2019-02-11T10:20:13.305Z,46.00
2019-02-11T10:22:42.348Z,44.20
2019-02-11T10:25:13.645Z,44.80
2019-02-11T10:27:42.317Z,43.90
2019-02-11T10:30:12.703Z,44.90
2019-02-11T10:32:41.929Z,43.40
2019-02-11T10:35:10.998Z,45.00
2019-02-11T10:37:39.736Z,43.80
2019-02-11T10:40:09.822Z,43.30
2019-02-11T10:42:39.066Z,42.70
2019-02-11T10:45:09.325Z,44.10
2019-02-11T10:47:38.486Z,43.90
2019-02-11T10:50:07.747Z,43.10
2019-02-11T10:52:36.555Z,42.40
2019-02-11T10:55:06.902Z,41.30
2019-02-11T10:57:35.651Z,41.20
2019-02-11T11:00:04.965Z,42.40
2019-02-11T11:02:33.689Z,42.40
2019-02-11T11:05:02.411Z,41.80
2019-02-11T11:07:31.189Z,42.60
2019-02-11T11:10:00.338Z,40.60
2019-02-11T11:12:29.382Z,41.50
2019-02-11T11:14:58.117Z,40.40
2019-02-11T11:17:27.400Z,40.20
2019-02-11T11:19:56.333Z,41.00
2019-02-11T11:22:25.112Z,40.80
2019-02-11T11:24:54.053Z,39.60
2019-02-11T11:27:22.871Z,39.00
2019-02-11T11:29:51.844Z,38.80
2019-02-11T11:32:20.829Z,38.90
2019-02-11T11:34:49.547Z,40.10
2019-02-11T11:37:18.689Z,38.60
2019-02-11T11:39:47.518Z,38.20
2019-02-11T11:42:16.239Z,38.40
2019-02-11T11:44:45.989Z,36.50
2019-02-11T11:47:14.968Z,38.00
2019-02-11T11:49:43.704Z,35.80
2019-02-11T11:52:13.052Z,34.00
2019-02-11T11:54:42.099Z,36.10
2019-02-11T11:57:10.784Z,35.60
2019-02-11T11:59:39.551Z,35.00
2019-02-11T12:02:08.250Z,35.40
2019-02-11T12:04:37.255Z,34.50
2019-02-11T12:07:06.232Z,33.30
2019-02-11T12:09:34.943Z,33.20
2019-02-11T12:12:03.746Z,31.50
2019-02-11T12:14:32.558Z,30.90
2019-02-11T12:17:02.876Z,29.70
2019-02-11T12:19:32.115Z,30.60
2019-02-11T12:22:01.168Z,32.10
2019-02-11T12:24:30.141Z,32.10
2019-02-11T12:26:58.838Z,33.20
2019-02-11T12:29:27.651Z,34.40
2019-02-11T12:31:56.593Z,33.30
2019-02-11T12:34:25.296Z,33.90
2019-02-11T12:36:54.997Z,35.20
2019-02-11T12:39:24.301Z,31.00
2019-02-11T12:41:53.025Z,28.10
2019-02-11T12:44:21.720Z,27.80
2019-02-11T12:46:50.643Z,28.60
2019-02-11T12:49:19.692Z,27.20
2019-02-11T12:51:48.513Z,28.50
2019-02-11T12:54:17.259Z,28.90
2019-02-11T12:56:46.006Z,31.10
2019-02-11T12:59:15.255Z,32.50
2019-02-11T13:01:44.261Z,33.40
2019-02-11T13:04:13.266Z,34.80
2019-02-11T13:06:42.077Z,34.00
2019-02-11T13:09:10.813Z,29.90
2019-02-11T13:11:39.877Z,30.50
2019-02-11T13:14:08.655Z,31.00
2019-02-11T13:16:37.398Z,31.30
2019-02-11T13:19:06.100Z,31.60
2019-02-11T13:21:34.901Z,30.40
2019-02-11T13:24:03.651Z,32.20
2019-02-11T13:26:32.389Z,32.20
2019-02-11T13:29:01.099Z,32.60
2019-02-11T13:31:29.774Z,30.00
2019-02-11T13:33:58.491Z,30.90
2019-02-11T13:36:27.470Z,31.80
2019-02-11T13:38:56.139Z,33.30
2019-02-11T13:41:24.841Z,33.80
2019-02-11T13:43:53.642Z,33.10
2019-02-11T13:46:22.330Z,32.10
2019-02-11T13:48:51.776Z,28.50
2019-02-11T13:51:20.813Z,25.40
2019-02-11T13:53:49.504Z,25.70
2019-02-11T13:56:18.241Z,25.70
2019-02-11T13:58:51.710Z,27.30
2019-02-11T14:01:17.462Z,28.10
2019-02-11T14:03:46.277Z,28.00
2019-02-11T14:06:15.149Z,27.20
2019-02-11T14:08:43.872Z,27.40
2019-02-11T14:11:12.637Z,27.80
2019-02-11T14:13:41.469Z,28.20
2019-02-11T14:16:10.185Z,27.60
2019-02-11T14:18:39.257Z,25.40
2019-02-11T14:21:08.150Z,23.80
2019-02-11T14:23:36.954Z,24.00
2019-02-11T14:26:05.654Z,25.20
2019-02-11T14:28:34.387Z,26.70
2019-02-11T14:31:03.463Z,27.50
2019-02-11T14:33:32.500Z,28.80
2019-02-11T14:36:05.137Z,29.00
2019-02-11T14:38:31.908Z,29.80
2019-02-11T14:41:00.569Z,30.30
2019-02-11T14:43:29.378Z,30.40
2019-02-11T14:45:58.418Z,31.20
2019-02-11T14:48:29.042Z,31.10
2019-02-11T14:50:57.573Z,29.90
2019-02-11T14:53:26.328Z,30.40
2019-02-11T14:55:55.334Z,31.20
2019-02-11T14:58:24.045Z,31.40
2019-02-11T15:00:52.750Z,32.10
2019-02-11T15:03:21.469Z,33.10
2019-02-11T15:05:50.469Z,33.60
2019-02-11T15:08:19.979Z,34.00
2019-02-11T15:10:48.960Z,34.50
2019-02-11T15:13:17.694Z,34.70
2019-02-11T15:15:46.689Z,34.20
2019-02-11T15:18:18.421Z,36.00
2019-02-11T15:20:47.421Z,35.20
2019-02-11T15:23:16.543Z,37.40
2019-02-11T15:25:45.280Z,37.60
2019-02-11T15:28:14.285Z,37.50
2019-02-11T15:30:42.979Z,37.00
2019-02-11T15:33:11.985Z,38.10
2019-02-11T15:35:40.677Z,38.20
2019-02-11T15:38:09.380Z,38.40
2019-02-11T15:40:38.346Z,38.50
2019-02-11T15:43:07.069Z,38.80
2019-02-11T15:45:36.330Z,38.50
2019-02-11T15:48:05.058Z,38.20
2019-02-11T15:50:34.077Z,37.40
2019-02-11T15:53:03.031Z,38.50
2019-02-11T15:55:31.722Z,38.80
2019-02-11T15:58:00.514Z,39.30
2019-02-11T16:00:51.391Z,38.90
2019-02-11T16:03:22.427Z,39.00
2019-02-11T16:05:51.572Z,38.70
2019-02-11T16:08:20.555Z,39.30
2019-02-11T16:10:49.606Z,39.00
2019-02-11T16:13:18.326Z,39.30
2019-02-11T16:15:47.189Z,39.30
2019-02-11T16:18:16.277Z,39.50
2019-02-11T16:20:45.541Z,39.20
2019-02-11T16:23:14.519Z,39.50
2019-02-11T16:25:43.558Z,38.90
2019-02-11T16:28:12.256Z,39.80
2019-02-11T16:30:41.254Z,39.80
2019-02-11T16:33:09.978Z,40.40
2019-02-11T16:35:39.033Z,39.70
2019-02-11T16:38:11.202Z,39.50
2019-02-11T16:40:40.237Z,40.20
2019-02-11T16:43:09.546Z,40.50
2019-02-11T16:45:38.590Z,40.20
2019-02-11T16:48:07.547Z,41.60
2019-02-11T16:50:36.532Z,42.00
2019-02-11T16:53:05.212Z,41.80
2019-02-11T16:55:33.986Z,42.60
2019-02-11T16:58:02.785Z,41.60
2019-02-11T17:00:31.510Z,42.00
2019-02-11T17:03:00.692Z,41.60
2019-02-11T17:05:29.385Z,42.30
2019-02-11T17:07:58.089Z,42.20
2019-02-11T17:10:26.846Z,42.60
2019-02-11T17:12:55.581Z,42.50
2019-02-11T17:15:24.277Z,42.40
2019-02-11T17:17:53.050Z,42.80
2019-02-11T17:20:22.049Z,42.80
2019-02-11T17:22:50.764Z,42.40
2019-02-11T17:25:19.693Z,42.40
2019-02-11T17:27:48.680Z,42.60
2019-02-11T17:30:20.132Z,42.50
2019-02-11T17:32:48.827Z,43.10
2019-02-11T17:35:17.604Z,42.80
2019-02-11T17:37:46.304Z,42.90
2019-02-11T17:40:15.008Z,42.50
2019-02-11T17:42:43.712Z,43.00
2019-02-11T17:45:14.326Z,43.00
2019-02-11T17:47:43.106Z,43.20
2019-02-11T17:50:11.835Z,42.90
2019-02-11T17:52:40.607Z,43.20
2019-02-11T17:55:13.491Z,42.70
2019-02-11T17:57:42.310Z,42.70
2019-02-11T18:00:23.554Z,42.40
2019-02-11T18:02:52.399Z,42.70
2019-02-11T18:05:21.116Z,42.80
2019-02-11T18:07:49.899Z,43.60
2019-02-11T18:10:18.768Z,43.30
2019-02-11T18:12:47.849Z,43.50
2019-02-11T18:15:16.581Z,43.40
2019-02-11T18:17:45.418Z,43.70
2019-02-11T18:20:14.149Z,43.20
2019-02-11T18:22:43.263Z,44.20
2019-02-11T18:25:12.315Z,43.90
2019-02-11T18:27:41.074Z,44.40
2019-02-11T18:30:11.039Z,44.10
2019-02-11T18:32:40.031Z,43.80
2019-02-11T18:35:10.078Z,43.50
2019-02-11T18:37:38.779Z,43.80
2019-02-11T18:40:09.245Z,44.20
2019-02-11T18:42:38.522Z,44.60
2019-02-11T18:45:09.849Z,44.20
2019-02-11T18:47:38.710Z,44.60
2019-02-11T18:50:08.605Z,44.80
2019-02-11T18:52:37.377Z,45.20
2019-02-11T18:55:06.513Z,45.70
2019-02-11T18:57:36.600Z,45.10
2019-02-11T19:00:07.418Z,44.60
2019-02-11T19:02:44.410Z,45.00
2019-02-11T19:05:13.315Z,44.60
2019-02-11T19:07:42.489Z,45.00
2019-02-11T19:10:18.975Z,45.10
2019-02-11T19:12:48.139Z,44.80
2019-02-11T19:15:17.098Z,45.40
2019-02-11T19:17:51.670Z,44.50
2019-02-11T19:20:20.637Z,43.90
2019-02-11T19:22:49.437Z,43.90
2019-02-11T19:25:18.289Z,43.90
2019-02-11T19:27:47.217Z,44.20
2019-02-11T19:30:18.518Z,43.90
2019-02-11T19:32:51.796Z,44.10
2019-02-11T19:35:20.805Z,44.00
2019-02-11T19:37:49.673Z,43.30
2019-02-11T19:40:18.550Z,43.80
2019-02-11T19:42:47.566Z,43.60
2019-02-11T19:45:17.468Z,42.80
2019-02-11T19:47:46.521Z,43.70
2019-02-11T19:50:16.080Z,43.30
2019-02-11T19:52:44.805Z,43.30
2019-02-11T19:55:13.833Z,46.90
2019-02-11T19:57:43.168Z,48.80
2019-02-11T20:00:15.040Z,47.20
2019-02-11T20:02:43.885Z,46.30
2019-02-11T20:05:12.585Z,45.90
2019-02-11T20:07:41.305Z,45.70
2019-02-11T20:10:11.186Z,45.90
2019-02-11T20:12:39.952Z,46.00
2019-02-11T20:15:10.859Z,46.20
2019-02-11T20:17:39.610Z,46.30
2019-02-11T20:20:09.634Z,46.40
2019-02-11T20:22:38.630Z,46.60
2019-02-11T20:25:07.966Z,46.70
2019-02-11T20:27:39.678Z,46.80
2019-02-11T20:30:10.826Z,47.00
2019-02-11T20:32:39.861Z,47.10
2019-02-11T20:35:08.540Z,47.30
2019-02-11T20:37:37.244Z,47.50
2019-02-11T20:40:06.485Z,47.70
2019-02-11T20:42:35.591Z,47.80
2019-02-11T20:45:04.960Z,48.00
2019-02-11T20:47:33.961Z,48.10
2019-02-11T20:50:09.028Z,48.30
2019-02-11T20:52:33.164Z,48.20
2019-02-11T20:55:02.142Z,48.50
2019-02-11T20:57:30.947Z,48.70
2019-02-11T20:59:59.641Z,49.00
2019-02-11T21:02:28.386Z,49.00
2019-02-11T21:04:57.098Z,48.90
2019-02-11T21:07:25.810Z,49.20
2019-02-11T21:09:54.881Z,49.40
2019-02-11T21:12:23.900Z,49.30
2019-02-11T21:14:52.721Z,49.50
2019-02-11T21:17:21.460Z,49.60
2019-02-11T21:19:50.445Z,49.60
2019-02-11T21:22:19.180Z,49.80
2019-02-11T21:24:47.938Z,49.70
2019-02-11T21:27:17.146Z,50.10
2019-02-11T21:29:45.906Z,50.30
2019-02-11T21:32:14.660Z,50.40
2019-02-11T21:34:43.376Z,50.40
2019-02-11T21:37:12.162Z,50.40
2019-02-11T21:39:40.887Z,50.40
2019-02-11T21:42:09.997Z,50.60
2019-02-11T21:44:38.697Z,50.80
2019-02-11T21:47:07.429Z,50.80
2019-02-11T21:49:36.298Z,51.00
2019-02-11T21:52:05.022Z,51.10
2019-02-11T21:54:33.769Z,51.00
2019-02-11T21:57:02.542Z,51.70
2019-02-11T21:59:31.663Z,51.20
2019-02-11T22:02:00.449Z,51.30
2019-02-11T22:04:29.151Z,51.40
2019-02-11T22:06:57.913Z,51.60
2019-02-11T22:09:26.725Z,51.40
2019-02-11T22:11:57.138Z,51.50
2019-02-11T22:14:26.126Z,51.60
2019-02-11T22:16:55.177Z,51.80
2019-02-11T22:19:24.856Z,52.00
2019-02-11T22:21:54.248Z,51.80
2019-02-11T22:24:23.057Z,52.00
2019-02-11T22:26:51.788Z,52.00
2019-02-11T22:29:20.501Z,52.20
2019-02-11T22:31:49.530Z,52.20
2019-02-11T22:34:18.261Z,52.30
2019-02-11T22:36:47.119Z,52.30
2019-02-11T22:39:16.098Z,52.50
2019-02-11T22:41:44.974Z,52.50
2019-02-11T22:44:14.305Z,52.50
2019-02-11T22:46:43.018Z,52.60
2019-02-11T22:49:11.763Z,52.60
2019-02-11T22:51:40.723Z,52.60
2019-02-11T22:54:09.822Z,52.70
2019-02-11T22:56:38.567Z,52.70
2019-02-11T22:59:09.736Z,52.70
2019-02-11T23:01:38.539Z,52.70
2019-02-11T23:04:07.257Z,52.80
2019-02-11T23:06:35.965Z,53.00
2019-02-11T23:09:06.656Z,53.00
2019-02-11T23:11:35.507Z,53.10
2019-02-11T23:14:04.197Z,53.10
2019-02-11T23:16:33.259Z,53.10
2019-02-11T23:19:02.040Z,53.20
2019-02-11T23:21:31.101Z,53.40
2019-02-11T23:24:00.326Z,53.40
2019-02-11T23:26:29.024Z,53.30
2019-02-11T23:28:57.846Z,53.30
2019-02-11T23:31:27.474Z,53.40
2019-02-11T23:33:56.147Z,53.30
2019-02-11T23:36:24.932Z,53.30
2019-02-11T23:38:53.790Z,53.30
2019-02-11T23:41:22.586Z,53.50
2019-02-11T23:43:51.698Z,53.50
2019-02-11T23:46:20.802Z,53.60
2019-02-11T23:48:50.198Z,53.70
2019-02-11T23:51:19.072Z,53.60
2019-02-11T23:53:47.922Z,53.70
2019-02-11T23:56:16.681Z,53.80
2019-02-11T23:58:45.719Z,53.80
